sensor_id;sensor_type;location;lat;lon;timestamp;pressure;altitude;pressure_sealevel;temperature;humidity
39051;BME280;24805;55.852;37.644;2023-04-15T00:04:40;100538.91;;;2.52;24.08
39051;BME280;24805;55.852;37.644;2023-04-15T00:09:42;100553.34;;;2.45;24.11
39051;BME280;24805;55.852;37.644;2023-04-15T00:14:45;100558.88;;;2.40;24.02
39051;BME280;24805;55.852;37.644;2023-04-15T00:19:47;100555.00;;;2.33;24.41
39051;BME280;24805;55.852;37.644;2023-04-15T00:24:49;100555.47;;;2.26;24.25
39051;BME280;24805;55.852;37.644;2023-04-15T00:29:52;100559.47;;;2.19;24.31
39051;BME280;24805;55.852;37.644;2023-04-15T00:34:54;100569.38;;;2.14;24.68
39051;BME280;24805;55.852;37.644;2023-04-15T00:39:57;100576.03;;;2.05;24.70
39051;BME280;24805;55.852;37.644;2023-04-15T00:44:59;100568.69;;;1.97;24.73
39051;BME280;24805;55.852;37.644;2023-04-15T00:50:03;100582.13;;;1.91;24.27
39051;BME280;24805;55.852;37.644;2023-04-15T00:55:06;100590.66;;;1.95;24.38
39051;BME280;24805;55.852;37.644;2023-04-15T01:00:09;100595.41;;;1.88;24.73
39051;BME280;24805;55.852;37.644;2023-04-15T01:05:13;100608.03;;;1.82;25.05
39051;BME280;24805;55.852;37.644;2023-04-15T01:10:18;100603.19;;;1.76;25.17
39051;BME280;24805;55.852;37.644;2023-04-15T01:15:20;100609.66;;;1.70;24.89
39051;BME280;24805;55.852;37.644;2023-04-15T01:20:22;100616.00;;;1.66;25.08
39051;BME280;24805;55.852;37.644;2023-04-15T01:25:34;100619.19;;;1.71;24.96
39051;BME280;24805;55.852;37.644;2023-04-15T01:30:36;100613.13;;;1.56;25.13
39051;BME280;24805;55.852;37.644;2023-04-15T01:35:38;100620.47;;;1.50;25.08
39051;BME280;24805;55.852;37.644;2023-04-15T01:40:40;100630.09;;;1.49;25.31
39051;BME280;24805;55.852;37.644;2023-04-15T01:45:45;100638.88;;;1.48;25.25
39051;BME280;24805;55.852;37.644;2023-04-15T01:50:49;100643.53;;;1.43;25.17
39051;BME280;24805;55.852;37.644;2023-04-15T01:55:52;100645.63;;;1.38;25.55
39051;BME280;24805;55.852;37.644;2023-04-15T02:00:56;100651.03;;;1.35;25.10
39051;BME280;24805;55.852;37.644;2023-04-15T02:05:59;100655.59;;;1.31;25.47
39051;BME280;24805;55.852;37.644;2023-04-15T02:11:03;100655.84;;;1.27;25.84
39051;BME280;24805;55.852;37.644;2023-04-15T02:16:17;100661.66;;;1.32;25.73
39051;BME280;24805;55.852;37.644;2023-04-15T02:21:21;100669.47;;;1.18;26.04
39051;BME280;24805;55.852;37.644;2023-04-15T02:26:24;100667.78;;;1.17;26.27
39051;BME280;24805;55.852;37.644;2023-04-15T02:31:29;100680.97;;;1.15;26.06
39051;BME280;24805;55.852;37.644;2023-04-15T02:36:36;100689.63;;;1.16;25.82
39051;BME280;24805;55.852;37.644;2023-04-15T02:41:40;100672.31;;;0.99;25.96
39051;BME280;24805;55.852;37.644;2023-04-15T02:46:46;100705.50;;;1.13;26.34
39051;BME280;24805;55.852;37.644;2023-04-15T02:51:53;100712.41;;;1.14;26.20
39051;BME280;24805;55.852;37.644;2023-04-15T02:56:57;100724.47;;;1.16;26.02
39051;BME280;24805;55.852;37.644;2023-04-15T03:02:00;100716.31;;;1.21;26.24
39051;BME280;24805;55.852;37.644;2023-04-15T03:07:04;100729.22;;;1.24;25.87
39051;BME280;24805;55.852;37.644;2023-04-15T03:12:08;100733.34;;;1.28;25.78
39051;BME280;24805;55.852;37.644;2023-04-15T03:17:11;100736.47;;;1.34;25.94
39051;BME280;24805;55.852;37.644;2023-04-15T03:22:14;100740.59;;;1.38;25.63
39051;BME280;24805;55.852;37.644;2023-04-15T03:27:18;100735.16;;;1.42;25.35
39051;BME280;24805;55.852;37.644;2023-04-15T03:32:22;100748.53;;;1.51;25.47
39051;BME280;24805;55.852;37.644;2023-04-15T03:37:25;100740.97;;;1.61;25.62
39051;BME280;24805;55.852;37.644;2023-04-15T03:42:29;100750.91;;;1.70;25.14
39051;BME280;24805;55.852;37.644;2023-04-15T03:47:33;100760.84;;;1.79;24.68
39051;BME280;24805;55.852;37.644;2023-04-15T03:52:37;100758.69;;;1.86;24.95
39051;BME280;24805;55.852;37.644;2023-04-15T03:57:40;100763.66;;;1.90;24.73
39051;BME280;24805;55.852;37.644;2023-04-15T04:02:44;100746.91;;;1.79;24.82
39051;BME280;24805;55.852;37.644;2023-04-15T04:07:48;100782.72;;;2.06;24.61
39051;BME280;24805;55.852;37.644;2023-04-15T04:12:51;100777.38;;;2.22;24.56
39051;BME280;24805;55.852;37.644;2023-04-15T04:17:55;100785.72;;;2.29;24.56
39051;BME280;24805;55.852;37.644;2023-04-15T04:22:58;100786.00;;;2.38;24.23
39051;BME280;24805;55.852;37.644;2023-04-15T04:28:02;100788.22;;;2.45;24.62
39051;BME280;24805;55.852;37.644;2023-04-15T04:33:06;100787.31;;;2.46;24.44
39051;BME280;24805;55.852;37.644;2023-04-15T04:38:09;100798.03;;;2.69;23.73
39051;BME280;24805;55.852;37.644;2023-04-15T04:43:14;100794.63;;;2.82;23.81
39051;BME280;24805;55.852;37.644;2023-04-15T04:48:18;100793.88;;;2.94;23.73
39051;BME280;24805;55.852;37.644;2023-04-15T04:53:22;100799.06;;;3.08;23.86
39051;BME280;24805;55.852;37.644;2023-04-15T04:58:25;100792.78;;;3.10;23.59
39051;BME280;24805;55.852;37.644;2023-04-15T05:03:29;100802.75;;;3.45;23.59
39051;BME280;24805;55.852;37.644;2023-04-15T05:08:33;100799.78;;;3.76;23.02
39051;BME280;24805;55.852;37.644;2023-04-15T05:13:36;100803.78;;;3.95;23.35
39051;BME280;24805;55.852;37.644;2023-04-15T05:18:40;100798.22;;;4.12;22.64
39051;BME280;24805;55.852;37.644;2023-04-15T05:23:44;100799.69;;;4.29;22.24
39051;BME280;24805;55.852;37.644;2023-04-15T05:28:47;100802.28;;;4.41;22.00
39051;BME280;24805;55.852;37.644;2023-04-15T05:33:51;100804.06;;;4.41;22.15
39051;BME280;24805;55.852;37.644;2023-04-15T05:38:54;100806.97;;;4.62;21.77
39051;BME280;24805;55.852;37.644;2023-04-15T05:43:58;100809.56;;;4.87;22.04
39051;BME280;24805;55.852;37.644;2023-04-15T05:49:01;100784.53;;;5.18;21.40
39051;BME280;24805;55.852;37.644;2023-04-15T05:54:05;100813.06;;;5.35;20.67
39051;BME280;24805;55.852;37.644;2023-04-15T05:59:10;100810.25;;;5.49;20.72
39051;BME280;24805;55.852;37.644;2023-04-15T06:04:13;100818.84;;;5.86;20.95
39051;BME280;24805;55.852;37.644;2023-04-15T06:09:17;100829.75;;;6.17;20.32
39051;BME280;24805;55.852;37.644;2023-04-15T06:14:20;100839.59;;;6.37;20.18
39051;BME280;24805;55.852;37.644;2023-04-15T06:19:24;100833.63;;;6.57;19.73
39051;BME280;24805;55.852;37.644;2023-04-15T06:24:28;100828.91;;;6.61;19.49
39051;BME280;24805;55.852;37.644;2023-04-15T06:29:31;100837.69;;;6.73;19.98
39051;BME280;24805;55.852;37.644;2023-04-15T06:34:34;100823.94;;;7.12;19.06
39051;BME280;24805;55.852;37.644;2023-04-15T06:39:38;100826.41;;;7.36;18.72
39051;BME280;24805;55.852;37.644;2023-04-15T06:44:42;100833.28;;;7.80;18.53
39051;BME280;24805;55.852;37.644;2023-04-15T06:49:45;100839.03;;;8.78;18.00
39051;BME280;24805;55.852;37.644;2023-04-15T06:54:49;100841.38;;;9.41;17.07
39051;BME280;24805;55.852;37.644;2023-04-15T06:59:52;100829.13;;;9.59;17.74
39051;BME280;24805;55.852;37.644;2023-04-15T07:04:56;100846.31;;;10.50;16.32
39051;BME280;24805;55.852;37.644;2023-04-15T07:10:00;100832.59;;;11.72;15.69
39051;BME280;24805;55.852;37.644;2023-04-15T07:15:05;100823.16;;;13.23;14.56
39051;BME280;24805;55.852;37.644;2023-04-15T07:20:09;100850.16;;;15.13;13.51
39051;BME280;24805;55.852;37.644;2023-04-15T07:25:13;100838.06;;;16.61;12.62
39051;BME280;24805;55.852;37.644;2023-04-15T07:30:16;100840.25;;;17.67;11.38
39051;BME280;24805;55.852;37.644;2023-04-15T07:35:19;100837.84;;;18.56;10.38
39051;BME280;24805;55.852;37.644;2023-04-15T07:40:23;100840.63;;;19.10;10.75
39051;BME280;24805;55.852;37.644;2023-04-15T07:45:26;100831.50;;;19.79;10.01
39051;BME280;24805;55.852;37.644;2023-04-15T07:50:30;100828.06;;;20.95;9.16
39051;BME280;24805;55.852;37.644;2023-04-15T07:55:34;100829.75;;;21.66;9.11
39051;BME280;24805;55.852;37.644;2023-04-15T08:00:37;100827.88;;;21.66;8.58
39051;BME280;24805;55.852;37.644;2023-04-15T08:05:41;100829.06;;;22.70;7.87
39051;BME280;24805;55.852;37.644;2023-04-15T08:10:44;100823.91;;;23.65;7.61
39051;BME280;24805;55.852;37.644;2023-04-15T08:21:21;100817.03;;;25.14;6.73
39051;BME280;24805;55.852;37.644;2023-04-15T08:26:25;100814.09;;;25.16;6.88
39051;BME280;24805;55.852;37.644;2023-04-15T08:31:29;100819.72;;;26.04;6.32
39051;BME280;24805;55.852;37.644;2023-04-15T08:36:32;100796.88;;;26.39;6.14
39051;BME280;24805;55.852;37.644;2023-04-15T08:41:42;100821.16;;;27.55;5.90
39051;BME280;24805;55.852;37.644;2023-04-15T08:46:48;100805.72;;;26.68;5.93
39051;BME280;24805;55.852;37.644;2023-04-15T08:51:52;100805.25;;;27.47;5.66
39051;BME280;24805;55.852;37.644;2023-04-15T08:56:57;100797.78;;;28.75;5.15
39051;BME280;24805;55.852;37.644;2023-04-15T09:02:02;100806.09;;;27.47;5.00
39051;BME280;24805;55.852;37.644;2023-04-15T09:07:06;100780.91;;;26.64;5.66
39051;BME280;24805;55.852;37.644;2023-04-15T09:12:10;100790.09;;;25.86;5.76
39051;BME280;24805;55.852;37.644;2023-04-15T09:17:17;100791.00;;;26.47;5.75
39051;BME280;24805;55.852;37.644;2023-04-15T09:22:21;100781.13;;;26.24;5.39
39051;BME280;24805;55.852;37.644;2023-04-15T09:27:24;100788.53;;;25.90;5.92
39051;BME280;24805;55.852;37.644;2023-04-15T09:32:28;100774.75;;;25.63;5.83
39051;BME280;24805;55.852;37.644;2023-04-15T09:37:35;100768.09;;;24.86;6.58
39051;BME280;24805;55.852;37.644;2023-04-15T09:42:54;100783.81;;;23.25;7.03
39051;BME280;24805;55.852;37.644;2023-04-15T09:48:00;100782.09;;;22.03;7.30
39051;BME280;24805;55.852;37.644;2023-04-15T09:53:18;100793.69;;;21.79;6.98
39051;BME280;24805;55.852;37.644;2023-04-15T09:58:27;100784.28;;;21.38;7.26
39051;BME280;24805;55.852;37.644;2023-04-15T10:03:33;100778.19;;;20.53;7.45
39051;BME280;24805;55.852;37.644;2023-04-15T10:08:38;100775.78;;;20.12;7.49
39051;BME280;24805;55.852;37.644;2023-04-15T10:13:43;100787.78;;;20.03;7.76
39051;BME280;24805;55.852;37.644;2023-04-15T10:18:54;100778.06;;;19.89;7.89
39051;BME280;24805;55.852;37.644;2023-04-15T10:24:00;100774.13;;;19.65;8.18
39051;BME280;24805;55.852;37.644;2023-04-15T10:29:05;100774.84;;;19.19;7.93
39051;BME280;24805;55.852;37.644;2023-04-15T10:34:09;100756.94;;;18.44;8.65
39051;BME280;24805;55.852;37.644;2023-04-15T10:44:36;100775.56;;;19.54;8.43
39051;BME280;24805;55.852;37.644;2023-04-15T10:49:49;100769.09;;;19.29;8.33
39051;BME280;24805;55.852;37.644;2023-04-15T10:55:14;100774.28;;;19.44;8.72
39051;BME280;24805;55.852;37.644;2023-04-15T11:00:20;100778.19;;;19.41;8.56
39051;BME280;24805;55.852;37.644;2023-04-15T11:15:48;100769.34;;;20.00;8.13
39051;BME280;24805;55.852;37.644;2023-04-15T11:20:54;100762.16;;;20.72;8.00
39051;BME280;24805;55.852;37.644;2023-04-15T11:26:01;100759.97;;;21.38;7.74
39051;BME280;24805;55.852;37.644;2023-04-15T11:31:13;100753.97;;;21.36;7.39
39051;BME280;24805;55.852;37.644;2023-04-15T11:36:18;100746.34;;;20.11;7.67
39051;BME280;24805;55.852;37.644;2023-04-15T11:41:22;100750.19;;;20.99;8.13
39051;BME280;24805;55.852;37.644;2023-04-15T11:46:29;100745.31;;;22.02;7.82
39051;BME280;24805;55.852;37.644;2023-04-15T11:51:34;100733.47;;;22.03;7.33
39051;BME280;24805;55.852;37.644;2023-04-15T11:56:37;100731.38;;;20.86;7.78
39051;BME280;24805;55.852;37.644;2023-04-15T12:01:40;100723.09;;;20.87;8.22
39051;BME280;24805;55.852;37.644;2023-04-15T12:06:44;100712.19;;;21.07;8.11
39051;BME280;24805;55.852;37.644;2023-04-15T12:11:51;100710.41;;;21.19;7.91
39051;BME280;24805;55.852;37.644;2023-04-15T12:16:58;100712.91;;;20.89;7.93
39051;BME280;24805;55.852;37.644;2023-04-15T12:22:04;100709.84;;;21.17;8.25
39051;BME280;24805;55.852;37.644;2023-04-15T12:27:15;100717.34;;;21.09;8.40
39051;BME280;24805;55.852;37.644;2023-04-15T12:32:18;100713.06;;;20.56;8.40
39051;BME280;24805;55.852;37.644;2023-04-15T12:37:23;100712.16;;;20.05;8.44
39051;BME280;24805;55.852;37.644;2023-04-15T12:42:28;100708.19;;;19.08;8.21
39051;BME280;24805;55.852;37.644;2023-04-15T12:47:30;100707.31;;;18.40;8.80
39051;BME280;24805;55.852;37.644;2023-04-15T12:52:32;100700.88;;;17.94;9.35
39051;BME280;24805;55.852;37.644;2023-04-15T12:57:34;100709.47;;;17.33;9.41
39051;BME280;24805;55.852;37.644;2023-04-15T13:02:36;100690.34;;;17.43;9.46
39051;BME280;24805;55.852;37.644;2023-04-15T13:07:41;100700.44;;;17.19;9.47
39051;BME280;24805;55.852;37.644;2023-04-15T13:12:43;100706.88;;;16.82;9.97
39051;BME280;24805;55.852;37.644;2023-04-15T13:17:48;100705.34;;;16.73;9.45
39051;BME280;24805;55.852;37.644;2023-04-15T13:22:52;100707.22;;;16.29;10.01
39051;BME280;24805;55.852;37.644;2023-04-15T13:27:55;100705.72;;;16.41;10.87
39051;BME280;24805;55.852;37.644;2023-04-15T13:32:58;100680.97;;;16.53;10.45
39051;BME280;24805;55.852;37.644;2023-04-15T13:38:00;100706.03;;;16.31;10.94
39051;BME280;24805;55.852;37.644;2023-04-15T13:43:03;100701.53;;;16.17;10.76
39051;BME280;24805;55.852;37.644;2023-04-15T13:48:05;100707.31;;;16.20;11.04
39051;BME280;24805;55.852;37.644;2023-04-15T13:53:08;100711.91;;;15.82;11.21
39051;BME280;24805;55.852;37.644;2023-04-15T13:58:10;100697.16;;;15.49;11.46
39051;BME280;24805;55.852;37.644;2023-04-15T14:03:12;100684.25;;;15.15;11.56
39051;BME280;24805;55.852;37.644;2023-04-15T14:08:14;100699.53;;;14.75;11.91
39051;BME280;24805;55.852;37.644;2023-04-15T14:13:17;100694.00;;;14.46;12.38
39051;BME280;24805;55.852;37.644;2023-04-15T14:18:20;100695.75;;;14.23;12.84
39051;BME280;24805;55.852;37.644;2023-04-15T14:23:22;100681.88;;;14.66;11.56
39051;BME280;24805;55.852;37.644;2023-04-15T14:28:24;100698.41;;;13.67;12.39
39051;BME280;24805;55.852;37.644;2023-04-15T14:33:27;100685.09;;;13.35;12.88
39051;BME280;24805;55.852;37.644;2023-04-15T14:38:28;100690.41;;;13.75;12.43
39051;BME280;24805;55.852;37.644;2023-04-15T14:43:31;100693.69;;;13.04;13.17
39051;BME280;24805;55.852;37.644;2023-04-15T14:48:34;100694.50;;;12.72;13.47
39051;BME280;24805;55.852;37.644;2023-04-15T14:53:36;100694.06;;;12.43;13.48
39051;BME280;24805;55.852;37.644;2023-04-15T14:58:38;100694.81;;;12.69;12.87
39051;BME280;24805;55.852;37.644;2023-04-15T15:03:40;100684.66;;;12.15;13.11
39051;BME280;24805;55.852;37.644;2023-04-15T15:08:43;100687.88;;;12.00;13.31
39051;BME280;24805;55.852;37.644;2023-04-15T15:13:46;100677.63;;;11.80;13.80
39051;BME280;24805;55.852;37.644;2023-04-15T15:18:49;100678.56;;;11.70;13.40
39051;BME280;24805;55.852;37.644;2023-04-15T15:23:52;100675.97;;;11.61;14.38
39051;BME280;24805;55.852;37.644;2023-04-15T15:28:54;100676.63;;;11.55;13.76
39051;BME280;24805;55.852;37.644;2023-04-15T15:33:56;100683.84;;;11.88;13.53
39051;BME280;24805;55.852;37.644;2023-04-15T15:38:58;100689.47;;;11.42;14.31
39051;BME280;24805;55.852;37.644;2023-04-15T15:44:01;100684.41;;;11.30;14.94
39051;BME280;24805;55.852;37.644;2023-04-15T15:49:03;100693.63;;;11.18;14.85
39051;BME280;24805;55.852;37.644;2023-04-15T15:54:05;100689.34;;;11.08;14.50
39051;BME280;24805;55.852;37.644;2023-04-15T15:59:07;100682.47;;;11.40;14.01
39051;BME280;24805;55.852;37.644;2023-04-15T16:04:10;100683.50;;;10.86;14.68
39051;BME280;24805;55.852;37.644;2023-04-15T16:09:12;100688.81;;;10.68;16.14
39051;BME280;24805;55.852;37.644;2023-04-15T16:14:14;100670.09;;;10.43;15.72
39051;BME280;24805;55.852;37.644;2023-04-15T16:19:17;100672.28;;;10.29;15.61
39051;BME280;24805;55.852;37.644;2023-04-15T16:24:19;100704.81;;;10.31;15.88
39051;BME280;24805;55.852;37.644;2023-04-15T16:29:21;100701.00;;;10.61;14.50
39051;BME280;24805;55.852;37.644;2023-04-15T16:34:24;100698.19;;;10.08;15.97
39051;BME280;24805;55.852;37.644;2023-04-15T16:39:26;100682.34;;;9.79;16.17
39051;BME280;24805;55.852;37.644;2023-04-15T16:44:28;100699.69;;;10.20;14.84
39051;BME280;24805;55.852;37.644;2023-04-15T16:49:30;100705.56;;;10.14;15.05
39051;BME280;24805;55.852;37.644;2023-04-15T16:54:32;100707.22;;;9.68;16.22
39051;BME280;24805;55.852;37.644;2023-04-15T16:59:36;100706.69;;;9.55;16.86
39051;BME280;24805;55.852;37.644;2023-04-15T17:04:39;100701.25;;;9.47;17.06
39051;BME280;24805;55.852;37.644;2023-04-15T17:09:42;100713.94;;;9.44;17.33
39051;BME280;24805;55.852;37.644;2023-04-15T17:14:45;100698.66;;;9.38;17.67
39051;BME280;24805;55.852;37.644;2023-04-15T17:19:48;100698.91;;;9.35;17.09
39051;BME280;24805;55.852;37.644;2023-04-15T17:24:52;100702.25;;;9.27;17.26
39051;BME280;24805;55.852;37.644;2023-04-15T17:29:56;100713.97;;;9.24;17.04
39051;BME280;24805;55.852;37.644;2023-04-15T17:35:18;100714.56;;;9.18;17.08
39051;BME280;24805;55.852;37.644;2023-04-15T17:40:40;100716.75;;;9.52;15.68
39051;BME280;24805;55.852;37.644;2023-04-15T17:46:03;100714.09;;;9.04;18.05
39051;BME280;24805;55.852;37.644;2023-04-15T17:51:26;100731.25;;;8.90;18.17
39051;BME280;24805;55.852;37.644;2023-04-15T17:57:00;100729.97;;;8.75;18.27
39051;BME280;24805;55.852;37.644;2023-04-15T18:02:24;100733.69;;;8.62;18.66
39051;BME280;24805;55.852;37.644;2023-04-15T18:07:46;100735.34;;;8.54;18.98
39051;BME280;24805;55.852;37.644;2023-04-15T18:13:08;100721.94;;;8.46;18.77
39051;BME280;24805;55.852;37.644;2023-04-15T18:18:30;100734.41;;;8.74;17.73
39051;BME280;24805;55.852;37.644;2023-04-15T18:23:34;100744.75;;;8.37;19.11
39051;BME280;24805;55.852;37.644;2023-04-15T18:28:36;100740.91;;;8.60;17.10
39051;BME280;24805;55.852;37.644;2023-04-15T18:33:40;100720.22;;;8.05;19.22
39051;BME280;24805;55.852;37.644;2023-04-15T18:38:45;100743.38;;;8.43;17.86
39051;BME280;24805;55.852;37.644;2023-04-15T18:57:36;100748.81;;;7.90;19.06
39051;BME280;24805;55.852;37.644;2023-04-15T19:02:45;100756.28;;;7.85;19.34
39051;BME280;24805;55.852;37.644;2023-04-15T19:07:49;100757.94;;;7.86;19.94
39051;BME280;24805;55.852;37.644;2023-04-15T19:12:51;100758.47;;;7.80;19.58
39051;BME280;24805;55.852;37.644;2023-04-15T19:17:54;100762.09;;;7.79;20.05
39051;BME280;24805;55.852;37.644;2023-04-15T19:22:56;100768.22;;;7.79;19.98
39051;BME280;24805;55.852;37.644;2023-04-15T19:27:58;100762.00;;;8.11;18.66
39051;BME280;24805;55.852;37.644;2023-04-15T19:33:00;100762.34;;;7.76;20.24
39051;BME280;24805;55.852;37.644;2023-04-15T19:38:03;100755.91;;;7.69;20.56
39051;BME280;24805;55.852;37.644;2023-04-15T19:43:05;100766.97;;;7.63;20.24
39051;BME280;24805;55.852;37.644;2023-04-15T19:48:08;100775.31;;;7.58;20.28
39051;BME280;24805;55.852;37.644;2023-04-15T19:53:10;100770.53;;;7.52;20.79
39051;BME280;24805;55.852;37.644;2023-04-15T19:58:12;100772.69;;;7.47;20.55
39051;BME280;24805;55.852;37.644;2023-04-15T20:03:14;100775.59;;;7.44;20.20
39051;BME280;24805;55.852;37.644;2023-04-15T20:08:17;100784.72;;;7.40;20.99
39051;BME280;24805;55.852;37.644;2023-04-15T20:13:19;100786.94;;;7.35;20.45
39051;BME280;24805;55.852;37.644;2023-04-15T20:18:21;100798.56;;;7.32;21.15
39051;BME280;24805;55.852;37.644;2023-04-15T20:23:24;100784.00;;;7.17;20.99
39051;BME280;24805;55.852;37.644;2023-04-15T20:28:26;100818.13;;;7.30;20.58
39051;BME280;24805;55.852;37.644;2023-04-15T20:33:28;100796.69;;;7.55;19.24
39051;BME280;24805;55.852;37.644;2023-04-15T20:38:30;100769.13;;;7.05;21.27
39051;BME280;24805;55.852;37.644;2023-04-15T20:43:32;100816.38;;;7.19;21.18
39051;BME280;24805;55.852;37.644;2023-04-15T20:48:34;100812.91;;;7.50;19.46
39051;BME280;24805;55.852;37.644;2023-04-15T20:53:36;100819.03;;;7.19;21.18
39051;BME280;24805;55.852;37.644;2023-04-15T20:58:39;100812.44;;;7.13;21.67
39051;BME280;24805;55.852;37.644;2023-04-15T21:03:41;100810.75;;;7.12;21.74
39051;BME280;24805;55.852;37.644;2023-04-15T21:08:43;100817.47;;;7.16;21.06
39051;BME280;24805;55.852;37.644;2023-04-15T21:13:45;100820.34;;;7.13;21.81
39051;BME280;24805;55.852;37.644;2023-04-15T21:18:47;100820.47;;;7.12;21.44
39051;BME280;24805;55.852;37.644;2023-04-15T21:23:50;100820.47;;;7.12;21.47
39051;BME280;24805;55.852;37.644;2023-04-15T21:28:52;100809.44;;;7.07;21.70
39051;BME280;24805;55.852;37.644;2023-04-15T21:33:54;100823.72;;;7.04;21.46
39051;BME280;24805;55.852;37.644;2023-04-15T21:38:56;100831.19;;;6.99;21.58
39051;BME280;24805;55.852;37.644;2023-04-15T21:43:59;100830.47;;;6.97;21.44
39051;BME280;24805;55.852;37.644;2023-04-15T21:49:01;100833.13;;;7.29;19.85
39051;BME280;24805;55.852;37.644;2023-04-15T21:54:03;100846.88;;;6.89;21.39
39051;BME280;24805;55.852;37.644;2023-04-15T21:59:05;100849.56;;;6.78;21.65
39051;BME280;24805;55.852;37.644;2023-04-15T22:04:07;100852.31;;;6.77;21.90
39051;BME280;24805;55.852;37.644;2023-04-15T22:09:12;100859.63;;;6.73;21.53
39051;BME280;24805;55.852;37.644;2023-04-15T22:14:15;100864.41;;;6.68;21.69
39051;BME280;24805;55.852;37.644;2023-04-15T22:19:17;100858.53;;;6.65;21.47
39051;BME280;24805;55.852;37.644;2023-04-15T22:24:19;100853.97;;;6.67;21.68
39051;BME280;24805;55.852;37.644;2023-04-15T22:29:40;100868.34;;;6.63;21.86
39051;BME280;24805;55.852;37.644;2023-04-15T22:34:42;100873.63;;;6.63;22.02
39051;BME280;24805;55.852;37.644;2023-04-15T22:39:44;100861.66;;;6.59;22.19
39051;BME280;24805;55.852;37.644;2023-04-15T22:44:48;100867.41;;;6.52;21.38
39051;BME280;24805;55.852;37.644;2023-04-15T22:49:50;100878.91;;;6.51;22.28
39051;BME280;24805;55.852;37.644;2023-04-15T22:54:52;100874.31;;;6.42;22.29
39051;BME280;24805;55.852;37.644;2023-04-15T22:59:55;100871.94;;;6.39;21.99
39051;BME280;24805;55.852;37.644;2023-04-15T23:04:57;100885.94;;;6.40;22.03
39051;BME280;24805;55.852;37.644;2023-04-15T23:10:00;100896.25;;;6.32;22.20
39051;BME280;24805;55.852;37.644;2023-04-15T23:15:02;100894.91;;;6.26;22.69
39051;BME280;24805;55.852;37.644;2023-04-15T23:20:07;100877.66;;;6.22;22.34
39051;BME280;24805;55.852;37.644;2023-04-15T23:25:10;100894.91;;;6.15;22.93
39051;BME280;24805;55.852;37.644;2023-04-15T23:30:12;100887.34;;;6.10;22.49
39051;BME280;24805;55.852;37.644;2023-04-15T23:35:15;100896.75;;;6.02;22.84
39051;BME280;24805;55.852;37.644;2023-04-15T23:40:17;100906.72;;;5.98;22.98
39051;BME280;24805;55.852;37.644;2023-04-15T23:45:19;100902.19;;;5.87;22.52
39051;BME280;24805;55.852;37.644;2023-04-15T23:50:21;100907.69;;;5.84;22.99
39051;BME280;24805;55.852;37.644;2023-04-15T23:55:24;100907.41;;;5.76;23.41
